»·PEaware :: SWA4272 KPHX-KABQ

SWA4272 :: KPHX-KABQ

FLIGHT INFORMATION

Flight Status: Arrived
Operator:
Southwest Airlines
More flights by this operator :: More flights under this callsign
Pilot: Brandon G. (13)
Aircraft: BOEING 737-800
(B738)
More flights by this aircraft type
Origin: KPHX Phoenix Sky Harbor Intl
United States
Destination: KABQ Albuquerque Intl Sunport
United States
More flights between these airports :: More routes between these airports
Route: +LALUZ5 SJN CABNO KRKEE3
File this flight plan on PilotEdge
Remarks:
Altitude:
(Current/Filed)
35,000ft
Speed:
(Current/Filed)
325kts
Departed: 13-Jan-18 11:10 AM
Arrived: 13-Jan-18 11:55 AM
Distance/Time
Traveled:
285nm/0:44
Distance/Time
To Go:
Arrived

Flight Plot

Page will automatically refresh every two minutes.

Flight plan parsing failed; only flown route is shown


Map Options




Map Legend


Flown Route
Filed Route
Departure Airport
Arrival Airport
Navaid (VOR, NDB)
Fix

Horizontal Profiles

Position Reports

Time Latitude Longitude Heading Altitude Ground
Speed
13-Jan-18 10:01 33.433691 -111.998720 322 1124ft 0kts
13-Jan-18 10:02 33.433691 -111.998720 322 1124ft 0kts
13-Jan-18 10:03 33.433691 -111.998720 322 1124ft 0kts
13-Jan-18 10:04 33.433691 -111.998720 322 1124ft 0kts
13-Jan-18 10:05 33.433691 -111.998720 322 1124ft 0kts
13-Jan-18 10:06 33.433691 -111.998720 322 1124ft 0kts
13-Jan-18 10:07 33.433691 -111.998720 322 1124ft 0kts
13-Jan-18 10:08 33.433691 -111.998720 322 1124ft 0kts
13-Jan-18 10:09 33.433691 -111.998720 322 1124ft 0kts
13-Jan-18 10:10 33.433691 -111.998720 322 1124ft 0kts
13-Jan-18 10:11 33.433691 -111.998720 322 1124ft 0kts
13-Jan-18 10:12 33.433691 -111.998720 322 1124ft 0kts
13-Jan-18 10:13 33.433691 -111.998720 322 1124ft 0kts
13-Jan-18 10:14 33.433691 -111.998720 322 1124ft 0kts
13-Jan-18 10:15 33.433691 -111.998720 322 1124ft 0kts
13-Jan-18 10:16 33.433691 -111.998720 322 1124ft 0kts
13-Jan-18 10:17 33.433691 -111.998720 322 1124ft 0kts
13-Jan-18 10:18 33.433691 -111.998720 322 1124ft 0kts
13-Jan-18 10:19 33.433691 -111.998720 322 1124ft 0kts
13-Jan-18 10:20 33.433691 -111.998720 322 1124ft 0kts
13-Jan-18 10:21 33.433691 -111.998720 322 1124ft 0kts
13-Jan-18 10:22 33.433691 -111.998720 322 1124ft 0kts
13-Jan-18 10:23 33.433691 -111.998720 322 1124ft 0kts
13-Jan-18 10:24 33.433691 -111.998720 322 1124ft 0kts
13-Jan-18 10:25 33.433691 -111.998720 322 1124ft 0kts
13-Jan-18 10:26 33.433691 -111.998720 322 1124ft 0kts
13-Jan-18 10:27 33.433691 -111.998720 322 1124ft 0kts
13-Jan-18 10:28 33.433691 -111.998720 322 1124ft 0kts
13-Jan-18 10:29 33.433691 -111.998720 322 1124ft 0kts
13-Jan-18 10:30 33.433691 -111.998720 322 1124ft 0kts
13-Jan-18 10:31 33.433613 -111.998391 243 1124ft 2kts
13-Jan-18 10:32 33.433879 -111.998231 178 1124ft 0kts
13-Jan-18 10:33 33.433879 -111.998231 178 1124ft 0kts
13-Jan-18 10:34 33.433879 -111.998231 178 1124ft 0kts
13-Jan-18 10:35 33.433879 -111.998231 178 1124ft 0kts
13-Jan-18 10:36 33.433879 -111.998231 178 1124ft 0kts
13-Jan-18 10:37 33.433871 -111.998231 178 1124ft 0kts
13-Jan-18 10:38 33.433307 -111.998250 181 1123ft 0kts
13-Jan-18 10:39 33.432879 -111.998464 253 1123ft 3kts
13-Jan-18 10:40 33.432838 -112.001478 270 1125ft 16kts
13-Jan-18 10:41 33.432895 -112.005603 271 1126ft 7kts
13-Jan-18 10:42 33.432901 -112.007978 270 1129ft 7kts
13-Jan-18 10:43 33.432844 -112.012781 266 1124ft 16kts
13-Jan-18 10:44 33.432903 -112.018725 269 1119ft 22kts
13-Jan-18 10:45 33.432891 -112.025689 269 1115ft 16kts
13-Jan-18 10:46 33.432181 -112.026987 180 1113ft 0kts
13-Jan-18 10:47 33.432181 -112.026987 180 1113ft 0kts
13-Jan-18 10:48 33.432181 -112.026987 180 1113ft 0kts
13-Jan-18 10:49 33.432181 -112.026987 180 1113ft 0kts
13-Jan-18 10:50 33.432181 -112.026987 180 1113ft 0kts
13-Jan-18 10:51 33.432181 -112.026987 180 1113ft 0kts
13-Jan-18 10:52 33.432181 -112.026987 180 1113ft 0kts
13-Jan-18 10:53 33.432181 -112.026987 180 1113ft 0kts
13-Jan-18 10:54 33.432181 -112.026987 180 1113ft 0kts
13-Jan-18 10:55 33.432181 -112.026987 180 1113ft 0kts
13-Jan-18 10:56 33.432181 -112.026987 180 1113ft 0kts
13-Jan-18 10:57 33.432181 -112.026987 180 1113ft 0kts
13-Jan-18 10:58 33.432181 -112.026987 180 1113ft 0kts
13-Jan-18 10:59 33.432181 -112.026987 180 1113ft 0kts
13-Jan-18 11:00 33.432181 -112.026987 180 1113ft 0kts
13-Jan-18 11:01 33.432181 -112.026987 180 1113ft 0kts
13-Jan-18 11:02 33.432181 -112.026987 180 1113ft 0kts
13-Jan-18 11:03 33.432181 -112.026987 180 1113ft 0kts
13-Jan-18 11:04 33.432181 -112.026987 180 1113ft 0kts
13-Jan-18 11:05 33.432181 -112.026987 180 1113ft 0kts
13-Jan-18 11:06 33.432181 -112.026987 180 1113ft 0kts
13-Jan-18 11:07 33.432181 -112.026987 180 1113ft 0kts
13-Jan-18 11:08 33.432181 -112.026987 180 1113ft 0kts
13-Jan-18 11:09 33.432181 -112.026987 180 1113ft 0kts
13-Jan-18 11:10 33.432181 -112.026987 180 1113ft 0kts
13-Jan-18 11:11 33.432181 -112.026987 180 1113ft 0kts
13-Jan-18 11:12 33.432181 -112.026987 180 1113ft 0kts
13-Jan-18 11:13 33.432181 -112.026987 180 1113ft 0kts
13-Jan-18 11:14 33.432180 -112.026987 180 1113ft 0kts
13-Jan-18 11:15 33.431055 -112.025400 89 1116ft 36kts
13-Jan-18 11:16 33.430023 -111.979111 89 2856ft 192kts
13-Jan-18 11:17 33.435225 -111.898563 82 5732ft 267kts
13-Jan-18 11:18 33.461956 -111.815908 62 7934ft 277kts
13-Jan-18 11:19 33.496877 -111.731650 62 10725ft 311kts
13-Jan-18 11:20 33.536284 -111.636290 62 14401ft 334kts
13-Jan-18 11:21 33.578102 -111.534815 61 17557ft 364kts
13-Jan-18 11:22 33.624314 -111.422355 61 20371ft 399kts
13-Jan-18 11:23 33.671504 -111.307086 61 23343ft 418kts
13-Jan-18 11:24 33.719347 -111.178485 64 26090ft 438kts
13-Jan-18 11:25 33.766697 -111.042877 64 28631ft 456kts
13-Jan-18 11:26 33.815973 -110.902120 63 31080ft 468kts
13-Jan-18 11:27 33.865816 -110.760138 63 33943ft 461kts
13-Jan-18 11:28 33.915732 -110.618553 62 35462ft 472kts
13-Jan-18 11:29 33.967058 -110.473319 62 35455ft 472kts
13-Jan-18 11:30 34.017164 -110.332029 63 35453ft 473kts
13-Jan-18 11:31 34.067921 -110.188792 63 35452ft 473kts
13-Jan-18 11:32 34.115156 -110.049587 64 35460ft 473kts
13-Jan-18 11:33 34.163928 -109.905328 63 35460ft 473kts
13-Jan-18 11:34 34.213266 -109.759791 63 35461ft 473kts
13-Jan-18 11:35 34.262770 -109.614270 63 35462ft 473kts
13-Jan-18 11:36 34.312330 -109.469084 63 35468ft 473kts
13-Jan-18 11:37 34.359747 -109.330639 63 35467ft 473kts
13-Jan-18 11:38 34.409834 -109.184888 63 35466ft 473kts
13-Jan-18 11:39 34.438629 -109.031571 77 35467ft 480kts
13-Jan-18 11:40 34.458398 -108.873501 77 35467ft 480kts
13-Jan-18 11:41 34.477986 -108.715402 77 35467ft 480kts
13-Jan-18 11:42 34.497445 -108.556630 77 35471ft 480kts
13-Jan-18 11:43 34.521497 -108.401270 73 34931ft 473kts
13-Jan-18 11:44 34.546021 -108.256551 74 31769ft 478kts
13-Jan-18 11:45 34.572699 -108.098830 75 29481ft 490kts
13-Jan-18 11:46 34.599880 -107.939033 74 29475ft 489kts
13-Jan-18 11:47 34.630881 -107.782778 62 29230ft 474kts
13-Jan-18 11:48 34.688045 -107.653150 57 27685ft 409kts
13-Jan-18 11:49 34.739350 -107.534310 58 25371ft 394kts
13-Jan-18 11:50 34.787865 -107.421361 59 21107ft 372kts
13-Jan-18 11:51 34.832212 -107.318281 60 17204ft 351kts
13-Jan-18 11:52 34.873326 -107.220356 61 14239ft 311kts
13-Jan-18 11:53 34.909823 -107.132589 61 11259ft 301kts
13-Jan-18 11:54 34.946007 -107.047582 60 10207ft 277kts
13-Jan-18 11:55 34.980749 -106.965641 61 10157ft 252kts
13-Jan-18 11:56 35.009256 -106.892839 61 8437ft 236kts
13-Jan-18 11:57 35.037119 -106.821916 61 8210ft 236kts
13-Jan-18 11:58 35.045184 -106.745879 88 7397ft 224kts
13-Jan-18 11:59 35.044657 -106.676899 87 6289ft 186kts
13-Jan-18 12:00 35.044334 -106.616304 87 5342ft 156kts
13-Jan-18 12:01 35.045114 -106.596477 46 5326ft 18kts
13-Jan-18 12:02 35.045548 -106.596286 345 5326ft 3kts
13-Jan-18 12:03 35.045743 -106.600357 268 5323ft 22kts
13-Jan-18 12:04 35.045832 -106.612911 279 5319ft 25kts

Navigation Log

Ident Type
Flight plan parsing failed, navigation log unavailable